sensor_id;sensor_type;location;lat;lon;timestamp;P1;durP1;ratioP1;P2;durP2;ratioP2
15931;SDS011;8065;49.520;11.284;2022-08-01T00:00:11;3.63;;;3.37;;
15931;SDS011;8065;49.520;11.284;2022-08-01T00:02:38;4.03;;;3.70;;
15931;SDS011;8065;49.520;11.284;2022-08-01T00:05:06;5.80;;;3.77;;
15931;SDS011;8065;49.520;11.284;2022-08-01T00:07:34;3.73;;;3.43;;
15931;SDS011;8065;49.520;11.284;2022-08-01T00:10:01;4.23;;;3.83;;
15931;SDS011;8065;49.520;11.284;2022-08-01T00:12:27;4.03;;;3.63;;
15931;SDS011;8065;49.520;11.284;2022-08-01T00:14:54;4.33;;;3.90;;
15931;SDS011;8065;49.520;11.284;2022-08-01T00:17:22;4.80;;;4.10;;
15931;SDS011;8065;49.520;11.284;2022-08-01T00:19:49;3.90;;;3.60;;
15931;SDS011;8065;49.520;11.284;2022-08-01T00:22:15;5.67;;;3.57;;
15931;SDS011;8065;49.520;11.284;2022-08-01T00:24:42;4.20;;;3.90;;
15931;SDS011;8065;49.520;11.284;2022-08-01T00:27:08;4.27;;;3.97;;
15931;SDS011;8065;49.520;11.284;2022-08-01T00:29:35;4.20;;;3.80;;
15931;SDS011;8065;49.520;11.284;2022-08-01T00:32:02;6.90;;;4.13;;
15931;SDS011;8065;49.520;11.284;2022-08-01T00:34:30;5.10;;;3.70;;
15931;SDS011;8065;49.520;11.284;2022-08-01T00:36:56;4.37;;;3.87;;
15931;SDS011;8065;49.520;11.284;2022-08-01T00:39:23;4.37;;;3.87;;
15931;SDS011;8065;49.520;11.284;2022-08-01T00:41:50;4.33;;;3.93;;
15931;SDS011;8065;49.520;11.284;2022-08-01T00:44:16;4.60;;;3.90;;
15931;SDS011;8065;49.520;11.284;2022-08-01T00:46:43;4.33;;;4.03;;
15931;SDS011;8065;49.520;11.284;2022-08-01T00:49:10;5.33;;;4.10;;
15931;SDS011;8065;49.520;11.284;2022-08-01T00:51:38;4.57;;;4.17;;
15931;SDS011;8065;49.520;11.284;2022-08-01T00:54:05;4.90;;;4.40;;
15931;SDS011;8065;49.520;11.284;2022-08-01T00:56:31;4.50;;;4.20;;
15931;SDS011;8065;49.520;11.284;2022-08-01T00:58:58;4.77;;;4.47;;
15931;SDS011;8065;49.520;11.284;2022-08-01T01:01:24;4.40;;;4.10;;
15931;SDS011;8065;49.520;11.284;2022-08-01T01:03:52;5.33;;;4.83;;
15931;SDS011;8065;49.520;11.284;2022-08-01T01:06:31;4.37;;;4.07;;
15931;SDS011;8065;49.520;11.284;2022-08-01T01:09:18;4.57;;;4.27;;
15931;SDS011;8065;49.520;11.284;2022-08-01T01:11:56;4.80;;;4.40;;
15931;SDS011;8065;49.520;11.284;2022-08-01T01:14:31;5.53;;;4.43;;
15931;SDS011;8065;49.520;11.284;2022-08-01T01:17:03;4.80;;;4.40;;
15931;SDS011;8065;49.520;11.284;2022-08-01T01:19:35;5.87;;;4.83;;
15931;SDS011;8065;49.520;11.284;2022-08-01T01:22:17;4.87;;;4.30;;
15931;SDS011;8065;49.520;11.284;2022-08-01T01:27:46;4.70;;;4.37;;
15931;SDS011;8065;49.520;11.284;2022-08-01T01:30:19;4.97;;;4.57;;
15931;SDS011;8065;49.520;11.284;2022-08-01T01:32:50;4.83;;;4.50;;
15931;SDS011;8065;49.520;11.284;2022-08-01T01:35:19;4.80;;;4.40;;
15931;SDS011;8065;49.520;11.284;2022-08-01T01:37:49;4.47;;;4.17;;
15931;SDS011;8065;49.520;11.284;2022-08-01T01:40:21;4.80;;;4.33;;
15931;SDS011;8065;49.520;11.284;2022-08-01T01:42:51;5.03;;;4.53;;
15931;SDS011;8065;49.520;11.284;2022-08-01T01:45:20;4.53;;;4.13;;
15931;SDS011;8065;49.520;11.284;2022-08-01T01:47:49;4.83;;;4.43;;
15931;SDS011;8065;49.520;11.284;2022-08-01T01:50:16;5.23;;;4.73;;
15931;SDS011;8065;49.520;11.284;2022-08-01T01:52:46;5.13;;;4.73;;
15931;SDS011;8065;49.520;11.284;2022-08-01T01:55:15;4.27;;;3.83;;
15931;SDS011;8065;49.520;11.284;2022-08-01T01:57:44;5.13;;;4.27;;
15931;SDS011;8065;49.520;11.284;2022-08-01T02:00:13;5.90;;;4.33;;
15931;SDS011;8065;49.520;11.284;2022-08-01T02:02:42;5.00;;;4.60;;
15931;SDS011;8065;49.520;11.284;2022-08-01T02:05:11;4.53;;;4.13;;
15931;SDS011;8065;49.520;11.284;2022-08-01T02:07:39;4.70;;;4.30;;
15931;SDS011;8065;49.520;11.284;2022-08-01T02:10:07;5.20;;;4.70;;
15931;SDS011;8065;49.520;11.284;2022-08-01T02:12:36;4.73;;;4.33;;
15931;SDS011;8065;49.520;11.284;2022-08-01T02:15:05;5.03;;;4.57;;
15931;SDS011;8065;49.520;11.284;2022-08-01T02:17:34;4.93;;;4.40;;
15931;SDS011;8065;49.520;11.284;2022-08-01T02:20:08;4.50;;;4.10;;
15931;SDS011;8065;49.520;11.284;2022-08-01T02:22:36;5.00;;;4.60;;
15931;SDS011;8065;49.520;11.284;2022-08-01T02:25:09;5.30;;;4.10;;
15931;SDS011;8065;49.520;11.284;2022-08-01T02:27:40;5.10;;;4.73;;
15931;SDS011;8065;49.520;11.284;2022-08-01T02:30:12;5.03;;;4.70;;
15931;SDS011;8065;49.520;11.284;2022-08-01T02:32:41;5.57;;;4.67;;
15931;SDS011;8065;49.520;11.284;2022-08-01T02:35:18;6.13;;;4.73;;
15931;SDS011;8065;49.520;11.284;2022-08-01T02:37:48;4.90;;;4.60;;
15931;SDS011;8065;49.520;11.284;2022-08-01T02:40:14;5.20;;;4.80;;
15931;SDS011;8065;49.520;11.284;2022-08-01T02:42:44;5.13;;;4.70;;
15931;SDS011;8065;49.520;11.284;2022-08-01T02:45:13;5.40;;;4.90;;
15931;SDS011;8065;49.520;11.284;2022-08-01T02:47:43;5.47;;;4.93;;
15931;SDS011;8065;49.520;11.284;2022-08-01T02:50:12;5.20;;;4.70;;
15931;SDS011;8065;49.520;11.284;2022-08-01T02:52:42;5.63;;;5.23;;
15931;SDS011;8065;49.520;11.284;2022-08-01T02:55:11;5.03;;;4.60;;
15931;SDS011;8065;49.520;11.284;2022-08-01T02:57:39;6.07;;;4.73;;
15931;SDS011;8065;49.520;11.284;2022-08-01T03:00:08;5.13;;;4.70;;
15931;SDS011;8065;49.520;11.284;2022-08-01T03:02:36;6.63;;;5.20;;
15931;SDS011;8065;49.520;11.284;2022-08-01T03:05:05;5.70;;;5.20;;
15931;SDS011;8065;49.520;11.284;2022-08-01T03:07:34;6.67;;;5.00;;
15931;SDS011;8065;49.520;11.284;2022-08-01T03:10:04;5.57;;;5.07;;
15931;SDS011;8065;49.520;11.284;2022-08-01T03:12:33;5.33;;;4.83;;
15931;SDS011;8065;49.520;11.284;2022-08-01T03:15:00;5.87;;;5.00;;
15931;SDS011;8065;49.520;11.284;2022-08-01T03:17:29;8.87;;;5.20;;
15931;SDS011;8065;49.520;11.284;2022-08-01T03:19:58;6.20;;;5.10;;
15931;SDS011;8065;49.520;11.284;2022-08-01T03:22:28;7.60;;;5.43;;
15931;SDS011;8065;49.520;11.284;2022-08-01T03:24:57;6.90;;;5.57;;
15931;SDS011;8065;49.520;11.284;2022-08-01T03:27:25;5.57;;;5.07;;
15931;SDS011;8065;49.520;11.284;2022-08-01T03:29:52;5.63;;;5.00;;
15931;SDS011;8065;49.520;11.284;2022-08-01T03:32:21;6.60;;;5.33;;
15931;SDS011;8065;49.520;11.284;2022-08-01T03:34:49;6.30;;;5.20;;
15931;SDS011;8065;49.520;11.284;2022-08-01T03:37:18;6.00;;;5.40;;
15931;SDS011;8065;49.520;11.284;2022-08-01T03:39:50;7.77;;;5.17;;
15931;SDS011;8065;49.520;11.284;2022-08-01T03:42:24;6.00;;;5.40;;
15931;SDS011;8065;49.520;11.284;2022-08-01T03:44:57;5.53;;;5.13;;
15931;SDS011;8065;49.520;11.284;2022-08-01T03:47:29;6.23;;;5.47;;
15931;SDS011;8065;49.520;11.284;2022-08-01T03:49:57;5.50;;;5.00;;
15931;SDS011;8065;49.520;11.284;2022-08-01T03:52:25;5.37;;;4.87;;
15931;SDS011;8065;49.520;11.284;2022-08-01T03:54:55;6.03;;;5.43;;
15931;SDS011;8065;49.520;11.284;2022-08-01T03:57:26;5.67;;;5.17;;
15931;SDS011;8065;49.520;11.284;2022-08-01T03:59:54;6.33;;;5.70;;
15931;SDS011;8065;49.520;11.284;2022-08-01T04:02:22;5.70;;;5.20;;
15931;SDS011;8065;49.520;11.284;2022-08-01T04:04:49;6.00;;;5.50;;
15931;SDS011;8065;49.520;11.284;2022-08-01T04:07:26;7.03;;;5.57;;
15931;SDS011;8065;49.520;11.284;2022-08-01T04:09:55;6.17;;;5.57;;
15931;SDS011;8065;49.520;11.284;2022-08-01T04:12:22;6.30;;;5.50;;
15931;SDS011;8065;49.520;11.284;2022-08-01T04:14:50;6.13;;;5.63;;
15931;SDS011;8065;49.520;11.284;2022-08-01T04:17:16;6.90;;;5.73;;
15931;SDS011;8065;49.520;11.284;2022-08-01T04:19:43;6.90;;;6.00;;
15931;SDS011;8065;49.520;11.284;2022-08-01T04:22:10;8.13;;;6.07;;
15931;SDS011;8065;49.520;11.284;2022-08-01T04:24:39;6.80;;;6.10;;
15931;SDS011;8065;49.520;11.284;2022-08-01T04:27:08;6.30;;;5.70;;
15931;SDS011;8065;49.520;11.284;2022-08-01T04:29:38;7.63;;;5.60;;
15931;SDS011;8065;49.520;11.284;2022-08-01T04:32:07;5.73;;;5.23;;
15931;SDS011;8065;49.520;11.284;2022-08-01T04:34:38;5.80;;;5.30;;
15931;SDS011;8065;49.520;11.284;2022-08-01T04:37:07;5.80;;;5.30;;
15931;SDS011;8065;49.520;11.284;2022-08-01T04:39:36;5.60;;;5.10;;
15931;SDS011;8065;49.520;11.284;2022-08-01T04:42:06;6.23;;;5.67;;
15931;SDS011;8065;49.520;11.284;2022-08-01T04:44:33;6.30;;;5.70;;
15931;SDS011;8065;49.520;11.284;2022-08-01T04:47:00;5.70;;;5.20;;
15931;SDS011;8065;49.520;11.284;2022-08-01T04:49:30;5.97;;;5.47;;
15931;SDS011;8065;49.520;11.284;2022-08-01T04:51:57;6.07;;;5.53;;
15931;SDS011;8065;49.520;11.284;2022-08-01T04:54:25;6.10;;;5.50;;
15931;SDS011;8065;49.520;11.284;2022-08-01T04:56:52;7.63;;;5.80;;
15931;SDS011;8065;49.520;11.284;2022-08-01T04:59:20;7.73;;;6.33;;
15931;SDS011;8065;49.520;11.284;2022-08-01T05:02:05;9.33;;;6.10;;
15931;SDS011;8065;49.520;11.284;2022-08-01T05:04:33;6.30;;;5.70;;
15931;SDS011;8065;49.520;11.284;2022-08-01T05:07:00;6.57;;;5.90;;
15931;SDS011;8065;49.520;11.284;2022-08-01T05:09:27;7.67;;;6.27;;
15931;SDS011;8065;49.520;11.284;2022-08-01T05:11:53;7.20;;;5.70;;
15931;SDS011;8065;49.520;11.284;2022-08-01T05:14:23;6.10;;;5.47;;
15931;SDS011;8065;49.520;11.284;2022-08-01T05:16:50;7.87;;;5.73;;
15931;SDS011;8065;49.520;11.284;2022-08-01T05:19:17;8.23;;;6.00;;
15931;SDS011;8065;49.520;11.284;2022-08-01T05:21:44;6.00;;;5.50;;
15931;SDS011;8065;49.520;11.284;2022-08-01T05:24:11;7.37;;;6.03;;
15931;SDS011;8065;49.520;11.284;2022-08-01T05:26:39;8.03;;;6.20;;
15931;SDS011;8065;49.520;11.284;2022-08-01T05:29:05;8.77;;;6.30;;
15931;SDS011;8065;49.520;11.284;2022-08-01T05:31:32;8.43;;;6.17;;
15931;SDS011;8065;49.520;11.284;2022-08-01T05:33:59;7.00;;;6.30;;
15931;SDS011;8065;49.520;11.284;2022-08-01T05:36:26;6.93;;;6.10;;
15931;SDS011;8065;49.520;11.284;2022-08-01T05:38:54;7.30;;;5.47;;
15931;SDS011;8065;49.520;11.284;2022-08-01T05:41:21;7.57;;;6.20;;
15931;SDS011;8065;49.520;11.284;2022-08-01T05:43:47;6.10;;;5.50;;
15931;SDS011;8065;49.520;11.284;2022-08-01T05:46:14;6.53;;;5.47;;
15931;SDS011;8065;49.520;11.284;2022-08-01T05:48:41;5.97;;;5.33;;
15931;SDS011;8065;49.520;11.284;2022-08-01T05:51:07;7.37;;;5.40;;
15931;SDS011;8065;49.520;11.284;2022-08-01T05:53:34;5.63;;;4.97;;
15931;SDS011;8065;49.520;11.284;2022-08-01T05:56:02;6.47;;;4.77;;
15931;SDS011;8065;49.520;11.284;2022-08-01T05:58:28;6.90;;;6.20;;
15931;SDS011;8065;49.520;11.284;2022-08-01T06:00:55;5.47;;;4.97;;
15931;SDS011;8065;49.520;11.284;2022-08-01T06:03:22;5.33;;;4.90;;
15931;SDS011;8065;49.520;11.284;2022-08-01T06:05:48;4.97;;;4.50;;
15931;SDS011;8065;49.520;11.284;2022-08-01T06:08:15;4.90;;;4.50;;
15931;SDS011;8065;49.520;11.284;2022-08-01T06:10:41;4.93;;;4.03;;
15931;SDS011;8065;49.520;11.284;2022-08-01T06:13:09;4.70;;;4.30;;
15931;SDS011;8065;49.520;11.284;2022-08-01T06:15:36;6.40;;;4.00;;
15931;SDS011;8065;49.520;11.284;2022-08-01T06:18:02;4.83;;;4.33;;
15931;SDS011;8065;49.520;11.284;2022-08-01T06:20:30;5.40;;;4.30;;
15931;SDS011;8065;49.520;11.284;2022-08-01T06:22:56;4.20;;;3.80;;
15931;SDS011;8065;49.520;11.284;2022-08-01T06:25:23;3.97;;;3.67;;
15931;SDS011;8065;49.520;11.284;2022-08-01T06:27:50;4.13;;;3.73;;
15931;SDS011;8065;49.520;11.284;2022-08-01T06:30:18;5.40;;;3.60;;
15931;SDS011;8065;49.520;11.284;2022-08-01T06:32:45;3.47;;;3.20;;
15931;SDS011;8065;49.520;11.284;2022-08-01T06:35:12;4.97;;;3.20;;
15931;SDS011;8065;49.520;11.284;2022-08-01T06:37:39;3.83;;;2.83;;
15931;SDS011;8065;49.520;11.284;2022-08-01T06:40:06;4.37;;;3.13;;
15931;SDS011;8065;49.520;11.284;2022-08-01T06:42:35;3.20;;;3.00;;
15931;SDS011;8065;49.520;11.284;2022-08-01T06:45:02;4.10;;;2.90;;
15931;SDS011;8065;49.520;11.284;2022-08-01T06:47:30;3.17;;;2.90;;
15931;SDS011;8065;49.520;11.284;2022-08-01T06:49:56;2.67;;;2.50;;
15931;SDS011;8065;49.520;11.284;2022-08-01T06:52:23;2.80;;;2.60;;
15931;SDS011;8065;49.520;11.284;2022-08-01T06:54:50;2.87;;;2.60;;
15931;SDS011;8065;49.520;11.284;2022-08-01T06:57:17;2.77;;;2.40;;
15931;SDS011;8065;49.520;11.284;2022-08-01T06:59:44;4.03;;;2.60;;
15931;SDS011;8065;49.520;11.284;2022-08-01T07:02:11;2.90;;;2.70;;
15931;SDS011;8065;49.520;11.284;2022-08-01T07:04:39;3.37;;;2.90;;
15931;SDS011;8065;49.520;11.284;2022-08-01T07:07:05;2.90;;;2.53;;
15931;SDS011;8065;49.520;11.284;2022-08-01T07:09:32;3.00;;;2.80;;
15931;SDS011;8065;49.520;11.284;2022-08-01T07:11:59;2.83;;;2.60;;
15931;SDS011;8065;49.520;11.284;2022-08-01T07:14:26;2.67;;;2.47;;
15931;SDS011;8065;49.520;11.284;2022-08-01T07:16:53;3.90;;;2.57;;
15931;SDS011;8065;49.520;11.284;2022-08-01T07:19:19;3.97;;;2.40;;
15931;SDS011;8065;49.520;11.284;2022-08-01T07:21:47;2.73;;;2.53;;
15931;SDS011;8065;49.520;11.284;2022-08-01T07:24:14;4.30;;;3.00;;
15931;SDS011;8065;49.520;11.284;2022-08-01T07:26:42;2.80;;;2.60;;
15931;SDS011;8065;49.520;11.284;2022-08-01T07:29:09;2.87;;;2.53;;
15931;SDS011;8065;49.520;11.284;2022-08-01T07:31:36;2.97;;;2.67;;
15931;SDS011;8065;49.520;11.284;2022-08-01T07:34:03;2.50;;;2.40;;
15931;SDS011;8065;49.520;11.284;2022-08-01T07:36:30;3.20;;;2.83;;
15931;SDS011;8065;49.520;11.284;2022-08-01T07:38:58;3.20;;;2.90;;
15931;SDS011;8065;49.520;11.284;2022-08-01T07:41:24;2.70;;;2.50;;
15931;SDS011;8065;49.520;11.284;2022-08-01T07:43:51;2.50;;;2.30;;
15931;SDS011;8065;49.520;11.284;2022-08-01T07:46:17;3.00;;;2.70;;
15931;SDS011;8065;49.520;11.284;2022-08-01T07:48:44;2.70;;;2.50;;
15931;SDS011;8065;49.520;11.284;2022-08-01T07:51:10;4.20;;;2.90;;
15931;SDS011;8065;49.520;11.284;2022-08-01T07:53:37;2.77;;;2.53;;
15931;SDS011;8065;49.520;11.284;2022-08-01T07:56:05;2.73;;;2.53;;
15931;SDS011;8065;49.520;11.284;2022-08-01T07:58:32;2.63;;;2.40;;
15931;SDS011;8065;49.520;11.284;2022-08-01T08:00:59;2.30;;;2.10;;
15931;SDS011;8065;49.520;11.284;2022-08-01T08:03:25;3.57;;;2.60;;
15931;SDS011;8065;49.520;11.284;2022-08-01T08:05:52;3.23;;;2.27;;
15931;SDS011;8065;49.520;11.284;2022-08-01T08:08:19;4.60;;;2.40;;
15931;SDS011;8065;49.520;11.284;2022-08-01T08:10:45;3.13;;;2.13;;
15931;SDS011;8065;49.520;11.284;2022-08-01T08:13:13;3.40;;;2.57;;
15931;SDS011;8065;49.520;11.284;2022-08-01T08:15:40;2.30;;;2.20;;
15931;SDS011;8065;49.520;11.284;2022-08-01T08:18:07;2.93;;;2.40;;
15931;SDS011;8065;49.520;11.284;2022-08-01T08:20:33;2.17;;;2.07;;
15931;SDS011;8065;49.520;11.284;2022-08-01T08:23:00;2.40;;;2.20;;
15931;SDS011;8065;49.520;11.284;2022-08-01T08:25:46;2.53;;;2.30;;
15931;SDS011;8065;49.520;11.284;2022-08-01T08:28:14;3.33;;;2.40;;
15931;SDS011;8065;49.520;11.284;2022-08-01T08:30:41;2.40;;;2.20;;
15931;SDS011;8065;49.520;11.284;2022-08-01T08:33:07;2.30;;;2.10;;
15931;SDS011;8065;49.520;11.284;2022-08-01T08:35:34;3.17;;;2.20;;
15931;SDS011;8065;49.520;11.284;2022-08-01T08:38:01;2.40;;;2.30;;
15931;SDS011;8065;49.520;11.284;2022-08-01T08:40:29;2.80;;;2.60;;
15931;SDS011;8065;49.520;11.284;2022-08-01T08:42:56;2.47;;;2.27;;
15931;SDS011;8065;49.520;11.284;2022-08-01T08:45:27;2.47;;;2.27;;
15931;SDS011;8065;49.520;11.284;2022-08-01T08:47:54;2.50;;;2.30;;
15931;SDS011;8065;49.520;11.284;2022-08-01T08:50:22;2.50;;;2.30;;
15931;SDS011;8065;49.520;11.284;2022-08-01T08:52:49;2.40;;;2.20;;
15931;SDS011;8065;49.520;11.284;2022-08-01T08:55:16;2.30;;;2.20;;
15931;SDS011;8065;49.520;11.284;2022-08-01T08:57:44;2.20;;;2.00;;
15931;SDS011;8065;49.520;11.284;2022-08-01T09:00:11;2.03;;;1.90;;
15931;SDS011;8065;49.520;11.284;2022-08-01T09:02:42;2.37;;;1.70;;
15931;SDS011;8065;49.520;11.284;2022-08-01T09:05:09;2.10;;;1.90;;
15931;SDS011;8065;49.520;11.284;2022-08-01T09:07:36;1.83;;;1.73;;
15931;SDS011;8065;49.520;11.284;2022-08-01T09:10:04;2.43;;;1.63;;
15931;SDS011;8065;49.520;11.284;2022-08-01T09:12:32;2.33;;;1.60;;
15931;SDS011;8065;49.520;11.284;2022-08-01T09:14:58;3.07;;;2.00;;
15931;SDS011;8065;49.520;11.284;2022-08-01T09:17:25;1.90;;;1.80;;
15931;SDS011;8065;49.520;11.284;2022-08-01T09:19:54;2.00;;;1.90;;
15931;SDS011;8065;49.520;11.284;2022-08-01T09:22:22;3.07;;;2.20;;
15931;SDS011;8065;49.520;11.284;2022-08-01T09:24:57;2.17;;;2.07;;
15931;SDS011;8065;49.520;11.284;2022-08-01T09:27:26;2.20;;;2.10;;
15931;SDS011;8065;49.520;11.284;2022-08-01T09:29:53;2.13;;;2.03;;
15931;SDS011;8065;49.520;11.284;2022-08-01T09:32:20;2.23;;;2.13;;
15931;SDS011;8065;49.520;11.284;2022-08-01T09:34:47;2.07;;;1.97;;
15931;SDS011;8065;49.520;11.284;2022-08-01T09:37:15;2.00;;;1.90;;
15931;SDS011;8065;49.520;11.284;2022-08-01T09:39:43;2.20;;;1.80;;
15931;SDS011;8065;49.520;11.284;2022-08-01T09:42:21;2.10;;;1.90;;
15931;SDS011;8065;49.520;11.284;2022-08-01T09:47:23;1.57;;;1.50;;
15931;SDS011;8065;49.520;11.284;2022-08-01T09:50:03;1.60;;;1.60;;
15931;SDS011;8065;49.520;11.284;2022-08-01T09:52:32;3.37;;;1.43;;
15931;SDS011;8065;49.520;11.284;2022-08-01T09:55:00;1.93;;;1.50;;
15931;SDS011;8065;49.520;11.284;2022-08-01T09:57:29;1.60;;;1.40;;
15931;SDS011;8065;49.520;11.284;2022-08-01T09:59:56;1.70;;;1.30;;
15931;SDS011;8065;49.520;11.284;2022-08-01T10:02:28;1.50;;;1.40;;
15931;SDS011;8065;49.520;11.284;2022-08-01T10:04:56;2.27;;;1.23;;
15931;SDS011;8065;49.520;11.284;2022-08-01T10:07:23;2.07;;;1.30;;
15931;SDS011;8065;49.520;11.284;2022-08-01T10:09:51;1.90;;;1.43;;
15931;SDS011;8065;49.520;11.284;2022-08-01T10:12:18;2.10;;;1.50;;
15931;SDS011;8065;49.520;11.284;2022-08-01T10:14:47;1.70;;;1.60;;
15931;SDS011;8065;49.520;11.284;2022-08-01T10:17:15;1.50;;;1.40;;
15931;SDS011;8065;49.520;11.284;2022-08-01T10:19:43;1.70;;;1.57;;
15931;SDS011;8065;49.520;11.284;2022-08-01T10:22:11;2.30;;;1.30;;
15931;SDS011;8065;49.520;11.284;2022-08-01T10:24:41;1.20;;;1.10;;
15931;SDS011;8065;49.520;11.284;2022-08-01T10:27:11;1.40;;;1.30;;
15931;SDS011;8065;49.520;11.284;2022-08-01T10:29:41;1.40;;;1.30;;
15931;SDS011;8065;49.520;11.284;2022-08-01T10:32:11;1.30;;;1.30;;
15931;SDS011;8065;49.520;11.284;2022-08-01T10:34:39;2.10;;;1.37;;
15931;SDS011;8065;49.520;11.284;2022-08-01T10:37:06;1.37;;;1.20;;
15931;SDS011;8065;49.520;11.284;2022-08-01T10:39:33;2.23;;;1.10;;
15931;SDS011;8065;49.520;11.284;2022-08-01T10:42:00;1.43;;;1.20;;
15931;SDS011;8065;49.520;11.284;2022-08-01T10:44:30;1.13;;;1.13;;
15931;SDS011;8065;49.520;11.284;2022-08-01T10:47:02;1.80;;;1.30;;
15931;SDS011;8065;49.520;11.284;2022-08-01T10:49:34;1.93;;;1.30;;
15931;SDS011;8065;49.520;11.284;2022-08-01T10:52:05;1.23;;;1.20;;
15931;SDS011;8065;49.520;11.284;2022-08-01T10:54:38;1.50;;;1.40;;
15931;SDS011;8065;49.520;11.284;2022-08-01T10:57:05;1.37;;;1.23;;
15931;SDS011;8065;49.520;11.284;2022-08-01T10:59:34;2.43;;;1.30;;
15931;SDS011;8065;49.520;11.284;2022-08-01T11:02:05;1.20;;;1.20;;
15931;SDS011;8065;49.520;11.284;2022-08-01T11:04:33;1.43;;;1.33;;
15931;SDS011;8065;49.520;11.284;2022-08-01T11:07:07;1.80;;;1.20;;
15931;SDS011;8065;49.520;11.284;2022-08-01T11:09:41;2.30;;;1.20;;
15931;SDS011;8065;49.520;11.284;2022-08-01T11:12:09;2.87;;;1.30;;
15931;SDS011;8065;49.520;11.284;2022-08-01T11:17:42;3.33;;;1.20;;
15931;SDS011;8065;49.520;11.284;2022-08-01T11:20:13;2.30;;;1.50;;
15931;SDS011;8065;49.520;11.284;2022-08-01T11:26:06;1.43;;;1.30;;
15931;SDS011;8065;49.520;11.284;2022-08-01T11:28:40;1.70;;;1.37;;
15931;SDS011;8065;49.520;11.284;2022-08-01T11:31:24;1.90;;;1.10;;
15931;SDS011;8065;49.520;11.284;2022-08-01T11:33:56;1.20;;;1.20;;
15931;SDS011;8065;49.520;11.284;2022-08-01T11:36:24;1.30;;;1.20;;
15931;SDS011;8065;49.520;11.284;2022-08-01T11:41:37;1.47;;;1.20;;
15931;SDS011;8065;49.520;11.284;2022-08-01T11:44:05;1.40;;;1.30;;
15931;SDS011;8065;49.520;11.284;2022-08-01T11:46:45;1.33;;;1.30;;
15931;SDS011;8065;49.520;11.284;2022-08-01T11:49:23;1.20;;;1.20;;
15931;SDS011;8065;49.520;11.284;2022-08-01T11:51:56;1.30;;;1.10;;
15931;SDS011;8065;49.520;11.284;2022-08-01T11:54:24;1.43;;;1.33;;
15931;SDS011;8065;49.520;11.284;2022-08-01T11:56:56;1.70;;;1.20;;
15931;SDS011;8065;49.520;11.284;2022-08-01T11:59:23;1.33;;;1.30;;
15931;SDS011;8065;49.520;11.284;2022-08-01T12:01:50;2.57;;;1.40;;
15931;SDS011;8065;49.520;11.284;2022-08-01T12:04:17;1.30;;;1.20;;
15931;SDS011;8065;49.520;11.284;2022-08-01T12:06:45;1.83;;;1.37;;
15931;SDS011;8065;49.520;11.284;2022-08-01T12:09:16;1.50;;;1.23;;
15931;SDS011;8065;49.520;11.284;2022-08-01T12:11:44;1.37;;;1.37;;
15931;SDS011;8065;49.520;11.284;2022-08-01T12:14:15;1.60;;;1.50;;
15931;SDS011;8065;49.520;11.284;2022-08-01T12:16:48;1.60;;;1.27;;
15931;SDS011;8065;49.520;11.284;2022-08-01T12:19:18;1.60;;;1.40;;
15931;SDS011;8065;49.520;11.284;2022-08-01T12:21:46;1.40;;;1.30;;
15931;SDS011;8065;49.520;11.284;2022-08-01T12:24:31;1.20;;;1.20;;
15931;SDS011;8065;49.520;11.284;2022-08-01T12:26:58;1.40;;;1.40;;
15931;SDS011;8065;49.520;11.284;2022-08-01T12:29:32;1.57;;;1.40;;
15931;SDS011;8065;49.520;11.284;2022-08-01T12:31:59;2.47;;;1.50;;
15931;SDS011;8065;49.520;11.284;2022-08-01T12:34:27;1.60;;;1.50;;
15931;SDS011;8065;49.520;11.284;2022-08-01T12:36:57;2.00;;;1.67;;
15931;SDS011;8065;49.520;11.284;2022-08-01T12:39:29;1.93;;;1.80;;
15931;SDS011;8065;49.520;11.284;2022-08-01T12:41:57;1.80;;;1.80;;
15931;SDS011;8065;49.520;11.284;2022-08-01T12:44:24;3.30;;;1.60;;
15931;SDS011;8065;49.520;11.284;2022-08-01T12:46:51;2.10;;;1.90;;
15931;SDS011;8065;49.520;11.284;2022-08-01T12:49:18;2.03;;;1.93;;
15931;SDS011;8065;49.520;11.284;2022-08-01T12:51:45;1.80;;;1.70;;
15931;SDS011;8065;49.520;11.284;2022-08-01T12:54:13;1.70;;;1.60;;
15931;SDS011;8065;49.520;11.284;2022-08-01T12:56:40;4.17;;;1.70;;
15931;SDS011;8065;49.520;11.284;2022-08-01T13:01:50;1.77;;;1.50;;
15931;SDS011;8065;49.520;11.284;2022-08-01T13:04:17;3.60;;;1.80;;
15931;SDS011;8065;49.520;11.284;2022-08-01T13:06:44;1.50;;;1.40;;
15931;SDS011;8065;49.520;11.284;2022-08-01T13:09:11;1.70;;;1.60;;
15931;SDS011;8065;49.520;11.284;2022-08-01T13:11:39;1.43;;;1.43;;
15931;SDS011;8065;49.520;11.284;2022-08-01T13:14:08;2.20;;;1.70;;
15931;SDS011;8065;49.520;11.284;2022-08-01T13:16:44;1.93;;;1.57;;
15931;SDS011;8065;49.520;11.284;2022-08-01T13:19:12;1.67;;;1.57;;
15931;SDS011;8065;49.520;11.284;2022-08-01T13:21:39;1.77;;;1.67;;
15931;SDS011;8065;49.520;11.284;2022-08-01T13:24:23;3.67;;;1.70;;
15931;SDS011;8065;49.520;11.284;2022-08-01T13:26:53;2.80;;;1.80;;
15931;SDS011;8065;49.520;11.284;2022-08-01T13:29:31;2.33;;;1.90;;
15931;SDS011;8065;49.520;11.284;2022-08-01T13:32:00;1.63;;;1.63;;
15931;SDS011;8065;49.520;11.284;2022-08-01T13:34:38;1.60;;;1.50;;
15931;SDS011;8065;49.520;11.284;2022-08-01T13:37:05;1.80;;;1.70;;
15931;SDS011;8065;49.520;11.284;2022-08-01T13:39:33;1.60;;;1.50;;
15931;SDS011;8065;49.520;11.284;2022-08-01T13:42:12;1.77;;;1.67;;
15931;SDS011;8065;49.520;11.284;2022-08-01T13:44:40;3.33;;;1.80;;
15931;SDS011;8065;49.520;11.284;2022-08-01T13:47:07;1.80;;;1.70;;
15931;SDS011;8065;49.520;11.284;2022-08-01T13:49:34;1.57;;;1.57;;
15931;SDS011;8065;49.520;11.284;2022-08-01T13:52:01;1.70;;;1.70;;
15931;SDS011;8065;49.520;11.284;2022-08-01T13:54:28;1.70;;;1.60;;
15931;SDS011;8065;49.520;11.284;2022-08-01T13:56:56;1.87;;;1.77;;
15931;SDS011;8065;49.520;11.284;2022-08-01T13:59:24;3.37;;;1.70;;
15931;SDS011;8065;49.520;11.284;2022-08-01T14:01:51;1.93;;;1.83;;
15931;SDS011;8065;49.520;11.284;2022-08-01T14:04:18;1.60;;;1.50;;
15931;SDS011;8065;49.520;11.284;2022-08-01T14:06:46;1.80;;;1.70;;
15931;SDS011;8065;49.520;11.284;2022-08-01T14:09:13;1.70;;;1.60;;
15931;SDS011;8065;49.520;11.284;2022-08-01T14:11:41;1.87;;;1.60;;
15931;SDS011;8065;49.520;11.284;2022-08-01T14:14:08;1.93;;;1.50;;
15931;SDS011;8065;49.520;11.284;2022-08-01T14:16:36;1.57;;;1.47;;
15931;SDS011;8065;49.520;11.284;2022-08-01T14:19:04;1.70;;;1.60;;
15931;SDS011;8065;49.520;11.284;2022-08-01T14:21:31;1.60;;;1.50;;
15931;SDS011;8065;49.520;11.284;2022-08-01T14:23:57;1.53;;;1.37;;
15931;SDS011;8065;49.520;11.284;2022-08-01T14:26:24;2.00;;;1.90;;
15931;SDS011;8065;49.520;11.284;2022-08-01T14:28:50;1.90;;;1.80;;
15931;SDS011;8065;49.520;11.284;2022-08-01T14:31:17;1.83;;;1.73;;
15931;SDS011;8065;49.520;11.284;2022-08-01T14:33:45;2.67;;;1.43;;
15931;SDS011;8065;49.520;11.284;2022-08-01T14:36:11;1.57;;;1.47;;
15931;SDS011;8065;49.520;11.284;2022-08-01T14:38:38;2.03;;;1.50;;
15931;SDS011;8065;49.520;11.284;2022-08-01T14:41:05;1.43;;;1.43;;
15931;SDS011;8065;49.520;11.284;2022-08-01T14:43:31;1.40;;;1.30;;
15931;SDS011;8065;49.520;11.284;2022-08-01T14:45:58;1.40;;;1.40;;
15931;SDS011;8065;49.520;11.284;2022-08-01T14:48:25;1.63;;;1.30;;
15931;SDS011;8065;49.520;11.284;2022-08-01T14:50:53;2.53;;;1.40;;
15931;SDS011;8065;49.520;11.284;2022-08-01T14:53:19;3.07;;;1.30;;
15931;SDS011;8065;49.520;11.284;2022-08-01T14:55:46;1.70;;;1.60;;
15931;SDS011;8065;49.520;11.284;2022-08-01T14:58:13;1.93;;;1.47;;
15931;SDS011;8065;49.520;11.284;2022-08-01T15:00:39;1.60;;;1.50;;
15931;SDS011;8065;49.520;11.284;2022-08-01T15:03:06;2.07;;;1.77;;
15931;SDS011;8065;49.520;11.284;2022-08-01T15:05:32;3.17;;;1.60;;
15931;SDS011;8065;49.520;11.284;2022-08-01T15:08:02;1.13;;;1.13;;
15931;SDS011;8065;49.520;11.284;2022-08-01T15:10:30;1.30;;;1.30;;
15931;SDS011;8065;49.520;11.284;2022-08-01T15:12:57;1.30;;;1.30;;